createdAt,value
2022-08-07T00:01:44.040Z,25.02
2022-08-07T00:04:09.263Z,24.98
2022-08-07T00:06:51.171Z,24.97
2022-08-07T00:09:22.269Z,25.01
2022-08-07T00:11:55.695Z,25.02
2022-08-07T00:14:30.286Z,25.03
2022-08-07T00:16:59.688Z,25.00
2022-08-07T00:19:59.989Z,24.97
2022-08-07T00:22:24.499Z,24.94
2022-08-07T00:25:05.243Z,24.96
2022-08-07T00:27:53.634Z,24.95
2022-08-07T00:30:28.129Z,24.97
2022-08-07T00:32:58.130Z,24.92
2022-08-07T00:35:29.687Z,24.93
2022-08-07T00:37:59.615Z,24.88
2022-08-07T00:40:40.000Z,24.87
2022-08-07T00:44:00.228Z,24.88
2022-08-07T00:46:01.764Z,24.90
2022-08-07T00:48:32.376Z,24.92
2022-08-07T00:51:02.722Z,24.88
2022-08-07T00:53:38.352Z,24.85
2022-08-07T00:56:14.030Z,24.87
2022-08-07T00:58:47.450Z,24.81
2022-08-07T01:01:20.388Z,24.82
2022-08-07T01:03:56.120Z,24.82
2022-08-07T01:06:27.354Z,24.83
2022-08-07T01:08:56.302Z,24.81
2022-08-07T01:12:24.104Z,24.82
2022-08-07T01:14:17.228Z,24.83
2022-08-07T01:16:50.504Z,24.74
2022-08-07T01:19:22.321Z,24.77
2022-08-07T01:21:55.923Z,24.77
2022-08-07T01:24:32.412Z,24.74
2022-08-07T01:27:02.476Z,24.72
2022-08-07T01:29:33.886Z,24.71
2022-08-07T01:32:12.278Z,24.72
2022-08-07T01:34:47.454Z,24.69
2022-08-07T01:37:20.114Z,24.65
2022-08-07T01:39:51.144Z,24.63
2022-08-07T01:42:57.271Z,24.50
2022-08-07T01:45:36.306Z,24.56
2022-08-07T01:48:20.923Z,24.61
2022-08-07T01:51:24.520Z,24.60
2022-08-07T01:54:11.994Z,24.61
2022-08-07T01:56:49.690Z,24.60
2022-08-07T01:59:23.475Z,24.57
2022-08-07T02:02:06.366Z,24.52
2022-08-07T02:04:55.691Z,24.48
2022-08-07T02:07:35.896Z,24.52
2022-08-07T02:10:16.505Z,24.52
2022-08-07T02:12:50.096Z,24.50
2022-08-07T02:15:26.444Z,24.50
2022-08-07T02:18:00.030Z,24.48
2022-08-07T02:20:29.483Z,24.49
2022-08-07T02:23:01.741Z,24.39
2022-08-07T02:26:30.926Z,24.37
2022-08-07T02:28:27.041Z,24.39
2022-08-07T02:31:01.751Z,24.38
2022-08-07T02:34:01.822Z,24.29
2022-08-07T02:36:35.840Z,24.28
2022-08-07T02:39:17.249Z,24.33
2022-08-07T02:42:03.255Z,24.32
2022-08-07T02:44:42.266Z,24.34
2022-08-07T02:47:19.610Z,24.36
2022-08-07T02:49:58.406Z,24.36
2022-08-07T02:52:37.280Z,24.29
2022-08-07T02:55:27.554Z,24.30
2022-08-07T02:58:04.035Z,24.35
2022-08-07T03:00:34.910Z,24.36
2022-08-07T03:03:06.673Z,24.28
2022-08-07T03:05:38.601Z,24.23
2022-08-07T03:08:10.841Z,24.24
2022-08-07T03:10:46.681Z,24.29
2022-08-07T03:13:20.310Z,24.20
2022-08-07T03:15:56.568Z,24.07
2022-08-07T03:18:34.901Z,24.11
2022-08-07T03:21:08.821Z,24.17
2022-08-07T03:24:20.376Z,24.18
2022-08-07T03:26:33.836Z,24.20
2022-08-07T03:29:10.430Z,24.23
2022-08-07T03:31:43.242Z,24.22
2022-08-07T03:34:21.999Z,24.19
2022-08-07T03:36:53.963Z,24.19
2022-08-07T03:39:45.890Z,24.18
2022-08-07T03:42:14.256Z,24.17
2022-08-07T03:44:47.138Z,24.17
2022-08-07T03:47:22.791Z,24.15
2022-08-07T03:49:53.661Z,24.12
2022-08-07T03:52:29.332Z,24.15
2022-08-07T03:55:06.043Z,24.17
2022-08-07T03:58:32.465Z,24.18
2022-08-07T04:00:36.349Z,24.16
2022-08-07T04:03:06.316Z,24.18
2022-08-07T04:05:42.474Z,24.20
2022-08-07T04:08:21.136Z,24.17
2022-08-07T04:10:54.201Z,24.12
2022-08-07T04:14:09.487Z,24.04
2022-08-07T04:16:33.463Z,24.04
2022-08-07T04:19:14.607Z,24.04
2022-08-07T04:21:58.767Z,24.02
2022-08-07T04:24:34.134Z,24.03
2022-08-07T04:27:20.713Z,24.03
2022-08-07T04:30:02.152Z,24.01
2022-08-07T04:32:58.449Z,24.00
2022-08-07T04:35:35.521Z,23.93
2022-08-07T04:38:08.772Z,23.83
2022-08-07T04:40:51.449Z,23.72
2022-08-07T04:44:09.966Z,23.67
2022-08-07T04:46:29.340Z,23.61
2022-08-07T04:49:17.779Z,23.56
2022-08-07T04:51:55.675Z,23.47
2022-08-07T04:54:31.704Z,23.51
2022-08-07T04:58:16.265Z,23.50
2022-08-07T05:00:09.818Z,23.49
2022-08-07T05:02:49.095Z,23.50
2022-08-07T05:05:53.447Z,23.50
2022-08-07T05:08:19.325Z,23.39
2022-08-07T05:11:11.920Z,23.41
2022-08-07T05:14:54.136Z,23.39
2022-08-07T05:16:47.561Z,23.31
2022-08-07T05:19:32.660Z,23.34
2022-08-07T05:22:12.748Z,23.31
2022-08-07T05:24:51.156Z,23.32
2022-08-07T05:28:03.502Z,23.30
2022-08-07T05:30:11.018Z,23.32
2022-08-07T05:32:40.882Z,23.26
2022-08-07T05:35:12.098Z,23.26
2022-08-07T05:37:42.503Z,23.21
2022-08-07T05:40:18.128Z,23.19
2022-08-07T05:42:56.083Z,23.22
2022-08-07T05:45:47.267Z,23.18
2022-08-07T05:48:16.600Z,23.20
2022-08-07T05:50:48.592Z,23.25
2022-08-07T05:54:11.955Z,23.27
2022-08-07T05:56:14.858Z,23.21
2022-08-07T05:58:52.404Z,23.15
2022-08-07T06:01:23.306Z,23.15
2022-08-07T06:04:01.152Z,23.22
2022-08-07T06:06:36.984Z,23.20
2022-08-07T06:09:10.349Z,23.20
2022-08-07T06:11:43.478Z,23.17
2022-08-07T06:14:21.454Z,23.16
2022-08-07T06:17:00.128Z,23.14
2022-08-07T06:19:52.253Z,23.19
2022-08-07T06:22:27.095Z,23.25
2022-08-07T06:25:18.721Z,23.26
2022-08-07T06:28:01.433Z,23.27
2022-08-07T06:30:36.195Z,23.29
2022-08-07T06:33:16.694Z,23.28
2022-08-07T06:36:13.530Z,23.23
2022-08-07T06:38:39.077Z,23.24
2022-08-07T06:41:59.131Z,23.25
2022-08-07T06:44:14.554Z,23.22
2022-08-07T06:46:53.468Z,23.27
2022-08-07T06:49:50.690Z,23.27
2022-08-07T06:52:31.313Z,23.30
2022-08-07T06:55:32.699Z,23.32
2022-08-07T06:58:00.807Z,23.33
2022-08-07T07:00:39.230Z,23.37
2022-08-07T07:03:13.892Z,23.09
2022-08-07T07:06:04.771Z,22.85
2022-08-07T07:08:39.714Z,22.76
2022-08-07T07:12:07.700Z,22.63
2022-08-07T07:14:05.294Z,22.63
2022-08-07T07:16:51.195Z,22.78
2022-08-07T07:19:56.441Z,22.66
2022-08-07T07:22:34.087Z,22.72
2022-08-07T07:26:30.460Z,22.82
2022-08-07T07:28:02.632Z,22.93
2022-08-07T07:30:38.504Z,22.86
2022-08-07T07:33:11.695Z,22.81
2022-08-07T07:35:54.495Z,22.87
2022-08-07T07:38:32.405Z,22.94
2022-08-07T07:41:05.260Z,22.99
2022-08-07T07:43:47.753Z,23.04
2022-08-07T07:46:38.065Z,22.97
2022-08-07T07:50:32.770Z,22.82
2022-08-07T07:52:10.808Z,22.93
2022-08-07T07:54:44.273Z,22.96
2022-08-07T07:57:43.598Z,23.05
2022-08-07T08:00:20.687Z,22.93
2022-08-07T08:03:06.154Z,22.92
2022-08-07T08:05:51.002Z,22.91
2022-08-07T08:08:34.280Z,22.95
2022-08-07T08:11:08.331Z,22.93
2022-08-07T08:13:54.521Z,22.99
2022-08-07T08:16:29.818Z,22.87
2022-08-07T08:20:16.080Z,22.83
2022-08-07T08:22:32.848Z,22.85
2022-08-07T08:25:41.805Z,22.89
2022-08-07T08:28:10.439Z,22.94
2022-08-07T08:30:50.818Z,23.05
2022-08-07T08:33:20.548Z,23.02
2022-08-07T08:35:54.614Z,23.03
2022-08-07T08:38:29.911Z,23.08
2022-08-07T08:41:07.004Z,23.07
2022-08-07T08:43:42.593Z,23.11
2022-08-07T08:46:38.508Z,23.12
2022-08-07T08:49:33.343Z,23.09
2022-08-07T08:52:40.617Z,23.13
2022-08-07T08:55:55.121Z,23.20
2022-08-07T08:58:37.741Z,23.31
2022-08-07T09:01:14.626Z,23.26
2022-08-07T09:03:52.974Z,23.20
2022-08-07T09:06:34.383Z,23.25
2022-08-07T09:09:09.564Z,23.22
2022-08-07T09:12:01.688Z,23.25
2022-08-07T09:14:42.238Z,23.26
2022-08-07T09:17:26.547Z,23.33
2022-08-07T09:20:09.430Z,23.31
2022-08-07T09:24:34.137Z,23.34
2022-08-07T09:25:57.872Z,23.39
2022-08-07T09:30:01.889Z,23.39
2022-08-07T09:31:33.653Z,23.41
2022-08-07T09:34:16.338Z,23.46
2022-08-07T09:36:50.008Z,23.48
2022-08-07T09:39:54.266Z,23.47
2022-08-07T09:42:33.745Z,23.51
2022-08-07T09:47:25.813Z,23.58
2022-08-07T09:48:12.062Z,23.63
2022-08-07T09:50:51.430Z,23.64
2022-08-07T09:53:23.407Z,23.66
2022-08-07T09:56:19.618Z,23.62
2022-08-07T09:59:07.718Z,23.58
2022-08-07T10:01:55.511Z,23.65
2022-08-07T10:04:39.337Z,23.60
2022-08-07T10:07:53.056Z,23.66
2022-08-07T10:11:58.962Z,23.77
2022-08-07T10:14:00.181Z,23.83
2022-08-07T10:16:43.329Z,23.96
2022-08-07T10:19:23.797Z,23.90
2022-08-07T10:22:15.600Z,23.91
2022-08-07T10:24:52.229Z,23.87
2022-08-07T10:27:45.914Z,23.87
2022-08-07T10:30:17.900Z,23.88
2022-08-07T10:34:05.913Z,23.89
2022-08-07T10:36:29.867Z,23.87
2022-08-07T10:39:02.104Z,23.90
2022-08-07T10:41:47.027Z,23.88
2022-08-07T10:44:37.382Z,23.87
2022-08-07T10:47:18.747Z,23.90
2022-08-07T10:50:01.434Z,23.88
2022-08-07T10:52:35.221Z,23.89
2022-08-07T10:55:27.068Z,23.89
2022-08-07T10:58:33.122Z,23.92
2022-08-07T11:01:16.562Z,23.88
2022-08-07T11:03:55.271Z,23.89
2022-08-07T11:06:41.131Z,23.96
2022-08-07T11:10:07.924Z,23.97
2022-08-07T11:12:08.274Z,24.02
2022-08-07T11:15:00.151Z,24.05
2022-08-07T11:17:45.166Z,24.10
2022-08-07T11:20:18.966Z,24.07
2022-08-07T11:22:59.335Z,24.10
2022-08-07T11:25:36.129Z,24.06
2022-08-07T11:28:17.582Z,24.13
2022-08-07T11:30:52.864Z,24.15
2022-08-07T11:33:58.575Z,24.16
2022-08-07T11:36:31.350Z,24.19
2022-08-07T11:39:07.440Z,24.16
2022-08-07T11:42:00.287Z,24.21
2022-08-07T11:44:37.493Z,24.31
2022-08-07T11:47:10.519Z,24.39
2022-08-07T11:50:32.338Z,24.42
2022-08-07T11:53:16.934Z,24.39
2022-08-07T11:56:24.892Z,24.38
2022-08-07T11:58:58.917Z,24.44
2022-08-07T12:01:59.158Z,24.45
2022-08-07T12:04:58.630Z,24.52
2022-08-07T12:07:39.108Z,24.54
2022-08-07T12:10:12.449Z,24.60
2022-08-07T12:12:47.069Z,24.60
2022-08-07T12:15:46.334Z,24.60
2022-08-07T12:18:16.115Z,24.60
2022-08-07T12:21:01.644Z,24.65
2022-08-07T12:24:06.956Z,24.46
2022-08-07T12:26:40.750Z,24.50
2022-08-07T12:29:37.847Z,24.62
2022-08-07T12:32:18.987Z,24.67
2022-08-07T12:34:55.741Z,24.82
2022-08-07T12:37:27.876Z,24.87
2022-08-07T12:40:44.983Z,24.86
2022-08-07T12:43:10.049Z,24.83
2022-08-07T12:45:52.286Z,24.86
2022-08-07T12:48:52.221Z,24.90
2022-08-07T12:51:20.864Z,24.95
2022-08-07T12:54:02.726Z,24.97
2022-08-07T12:56:51.306Z,25.00
2022-08-07T12:59:30.447Z,25.03
2022-08-07T13:02:13.231Z,25.05
2022-08-07T13:05:01.633Z,25.03
2022-08-07T13:08:13.464Z,24.96
2022-08-07T13:10:52.195Z,24.98
2022-08-07T13:13:47.924Z,25.04
2022-08-07T13:16:26.679Z,25.10
2022-08-07T13:19:02.557Z,25.10
2022-08-07T13:21:51.141Z,25.13
2022-08-07T13:24:25.693Z,25.20
2022-08-07T13:27:05.671Z,25.22
2022-08-07T13:29:42.307Z,25.20
2022-08-07T13:32:32.677Z,25.22
2022-08-07T13:35:10.892Z,25.28
2022-08-07T13:37:43.426Z,25.42
2022-08-07T13:40:35.062Z,25.48
2022-08-07T13:43:13.815Z,25.35
2022-08-07T13:46:20.894Z,25.33
2022-08-07T13:48:38.725Z,25.35
2022-08-07T13:51:27.153Z,25.40
2022-08-07T13:54:02.058Z,25.48
2022-08-07T13:56:35.720Z,25.50
2022-08-07T13:59:13.585Z,25.57
2022-08-07T14:01:51.027Z,25.58
2022-08-07T14:04:29.724Z,25.58
2022-08-07T14:06:59.982Z,25.59
2022-08-07T14:10:02.605Z,25.62
2022-08-07T14:12:28.103Z,25.73
2022-08-07T14:15:01.771Z,25.78
2022-08-07T14:18:12.711Z,25.77
2022-08-07T14:20:40.550Z,25.83
2022-08-07T14:23:31.206Z,25.81
2022-08-07T14:30:02.956Z,25.88
2022-08-07T14:31:56.462Z,25.91
2022-08-07T14:34:30.481Z,25.89
2022-08-07T14:37:01.639Z,25.89
2022-08-07T14:40:14.563Z,25.89
2022-08-07T14:42:32.310Z,25.92
2022-08-07T14:45:21.258Z,26.02
2022-08-07T14:47:52.983Z,26.05
2022-08-07T14:50:28.129Z,26.05
2022-08-07T14:53:07.757Z,25.92
2022-08-07T14:55:56.516Z,25.94
2022-08-07T14:58:33.797Z,25.96
2022-08-07T15:03:53.347Z,25.99
2022-08-07T15:06:25.243Z,26.04
2022-08-07T15:20:32.904Z,26.11
2022-08-07T15:23:20.377Z,26.11
2022-08-07T15:25:53.240Z,26.11
2022-08-07T15:28:34.412Z,26.12
2022-08-07T15:31:09.939Z,26.11
2022-08-07T15:33:42.861Z,26.12
2022-08-07T15:36:13.158Z,26.13
2022-08-07T15:38:58.526Z,26.15
2022-08-07T15:42:43.486Z,26.14
2022-08-07T15:44:23.879Z,26.12
2022-08-07T15:47:03.330Z,26.14
2022-08-07T15:52:30.713Z,26.14
2022-08-07T15:55:02.807Z,26.18
2022-08-07T15:57:39.980Z,26.18
2022-08-07T16:00:31.897Z,26.14
2022-08-07T16:03:22.132Z,26.14
2022-08-07T16:05:59.298Z,26.12
2022-08-07T16:08:37.704Z,26.14
2022-08-07T16:11:26.545Z,26.17
2022-08-07T16:14:03.124Z,26.15
2022-08-07T16:17:15.037Z,26.14
2022-08-07T16:19:58.497Z,26.15
2022-08-07T16:22:55.269Z,26.15
2022-08-07T16:25:54.716Z,26.17
2022-08-07T16:30:08.882Z,26.14
2022-08-07T16:31:58.299Z,26.13
2022-08-07T16:34:40.899Z,26.16
2022-08-07T16:38:05.923Z,26.13
2022-08-07T16:40:32.094Z,26.12
2022-08-07T16:43:09.138Z,26.07
2022-08-07T16:50:27.448Z,26.08
2022-08-07T16:52:50.676Z,26.07
2022-08-07T16:55:17.047Z,26.07
2022-08-07T16:58:02.666Z,26.09
2022-08-07T17:00:41.092Z,26.10
2022-08-07T17:03:58.000Z,26.09
2022-08-07T17:06:28.908Z,26.09
2022-08-07T17:09:09.150Z,26.07
2022-08-07T17:12:04.578Z,26.07
2022-08-07T17:14:43.213Z,26.05
2022-08-07T17:17:46.751Z,26.05
2022-08-07T17:20:30.014Z,26.04
2022-08-07T17:23:08.627Z,25.88
2022-08-07T17:25:57.279Z,25.53
2022-08-07T17:28:33.145Z,25.43
2022-08-07T17:31:16.185Z,25.34
2022-08-07T17:34:15.429Z,25.28
2022-08-07T17:36:57.610Z,25.29
2022-08-07T17:39:53.180Z,25.32
2022-08-07T17:42:59.277Z,25.22
2022-08-07T17:45:35.207Z,25.28
2022-08-07T17:48:11.160Z,25.26
2022-08-07T17:50:54.220Z,25.21
2022-08-07T17:54:00.983Z,25.18
2022-08-07T17:56:29.237Z,25.11
2022-08-07T17:59:09.254Z,25.13
2022-08-07T18:01:48.425Z,25.11
2022-08-07T18:04:31.098Z,25.11
2022-08-07T18:07:20.503Z,25.03
2022-08-07T18:10:05.818Z,25.04
2022-08-07T18:12:51.446Z,25.11
2022-08-07T18:15:32.327Z,25.10
2022-08-07T18:18:46.422Z,25.00
2022-08-07T18:21:42.191Z,24.95
2022-08-07T18:24:07.171Z,24.98
2022-08-07T18:27:18.425Z,25.01
2022-08-07T18:30:04.495Z,25.02
2022-08-07T18:33:21.408Z,25.06
2022-08-07T18:36:06.099Z,25.02
2022-08-07T18:38:58.182Z,25.04
2022-08-07T18:41:45.797Z,25.02
2022-08-07T18:45:40.054Z,25.07
2022-08-07T18:47:44.614Z,24.99
2022-08-07T18:50:45.707Z,25.02
2022-08-07T18:53:39.276Z,25.03
2022-08-07T18:56:15.215Z,24.97
2022-08-07T18:59:01.041Z,24.97
2022-08-07T19:02:19.499Z,24.97
2022-08-07T19:04:39.677Z,24.94
2022-08-07T19:07:35.084Z,24.87
2022-08-07T19:10:15.123Z,24.84
2022-08-07T19:12:59.153Z,24.84
2022-08-07T19:16:05.757Z,24.79
2022-08-07T19:18:34.841Z,24.74
2022-08-07T19:21:14.533Z,24.70
2022-08-07T19:24:02.500Z,24.76
2022-08-07T19:27:08.890Z,24.64
2022-08-07T19:31:05.485Z,24.62
2022-08-07T19:32:39.543Z,24.66
2022-08-07T19:35:11.865Z,24.79
2022-08-07T19:37:55.128Z,24.80
2022-08-07T19:40:31.060Z,24.66
2022-08-07T19:43:10.633Z,24.37
2022-08-07T19:46:06.155Z,24.24
2022-08-07T19:48:42.646Z,24.39
2022-08-07T19:51:19.328Z,24.27
2022-08-07T19:54:33.179Z,24.14
2022-08-07T19:57:50.932Z,24.21
2022-08-07T19:59:41.636Z,24.44
2022-08-07T20:02:21.305Z,24.39
2022-08-07T20:04:51.971Z,24.52
2022-08-07T20:07:46.080Z,24.58
2022-08-07T20:10:37.643Z,24.45
2022-08-07T20:13:22.499Z,24.37
2022-08-07T20:15:54.846Z,24.39
2022-08-07T20:18:32.972Z,24.48
2022-08-07T20:21:14.365Z,24.49
2022-08-07T20:23:51.839Z,24.58
2022-08-07T20:26:32.613Z,24.60
2022-08-07T20:29:46.494Z,24.62
2022-08-07T20:32:02.729Z,24.54
2022-08-07T20:34:50.181Z,24.42
2022-08-07T20:37:25.117Z,24.45
2022-08-07T20:40:03.004Z,24.41
2022-08-07T20:42:35.255Z,24.28
2022-08-07T20:45:33.663Z,24.37
2022-08-07T20:47:58.602Z,24.30
2022-08-07T20:50:30.316Z,24.26
2022-08-07T20:53:00.456Z,24.34
2022-08-07T20:55:32.276Z,24.07
2022-08-07T20:58:12.195Z,24.26
2022-08-07T21:00:57.752Z,24.21
2022-08-07T21:03:28.833Z,23.92
2022-08-07T21:06:00.822Z,23.89
2022-08-07T21:08:37.128Z,23.98
2022-08-07T21:11:10.711Z,24.04
2022-08-07T21:13:57.518Z,23.86
2022-08-07T21:16:37.771Z,23.96
2022-08-07T21:19:32.301Z,23.91
2022-08-07T21:22:19.160Z,23.85
2022-08-07T21:25:12.166Z,23.88
2022-08-07T21:28:01.745Z,23.72
2022-08-07T21:30:39.421Z,23.62
2022-08-07T21:33:16.789Z,23.63
2022-08-07T21:36:06.680Z,23.62
2022-08-07T21:38:50.009Z,23.68
2022-08-07T21:41:24.474Z,23.69
2022-08-07T21:43:57.089Z,23.65
2022-08-07T21:46:33.229Z,23.37
2022-08-07T21:49:16.037Z,23.50
2022-08-07T21:51:59.506Z,23.67
2022-08-07T21:54:33.713Z,23.51
2022-08-07T21:57:15.933Z,23.45
2022-08-07T22:00:05.743Z,23.51
2022-08-07T22:02:41.406Z,23.34
2022-08-07T22:05:21.698Z,23.07
2022-08-07T22:08:02.933Z,22.96
2022-08-07T22:10:35.302Z,23.32
2022-08-07T22:13:09.037Z,23.34
2022-08-07T22:16:38.768Z,23.40
2022-08-07T22:18:36.759Z,23.28
2022-08-07T22:21:14.896Z,23.43
2022-08-07T22:23:51.446Z,23.41
2022-08-07T22:26:22.952Z,23.43
2022-08-07T22:28:55.945Z,23.29
2022-08-07T22:31:56.001Z,23.17
2022-08-07T22:34:28.623Z,23.18
2022-08-07T22:37:05.782Z,23.24
2022-08-07T22:39:52.825Z,23.15
2022-08-07T22:42:26.124Z,23.18
2022-08-07T22:45:02.453Z,23.00
2022-08-07T22:47:56.931Z,23.29
2022-08-07T22:51:03.742Z,23.26
2022-08-07T22:54:06.686Z,23.06
2022-08-07T22:56:42.145Z,23.23
2022-08-07T22:59:35.630Z,23.22
2022-08-07T23:02:27.393Z,22.93
2022-08-07T23:06:06.993Z,23.53
2022-08-07T23:07:55.110Z,23.82
2022-08-07T23:10:37.429Z,23.92
2022-08-07T23:13:22.134Z,23.98
2022-08-07T23:16:06.870Z,24.01
2022-08-07T23:19:13.869Z,24.04
2022-08-07T23:21:47.880Z,24.06
2022-08-07T23:24:38.683Z,24.07
2022-08-07T23:27:33.534Z,24.09
2022-08-07T23:30:37.466Z,24.08
2022-08-07T23:34:36.419Z,24.03
2022-08-07T23:36:22.902Z,24.06
2022-08-07T23:39:08.377Z,24.11
2022-08-07T23:42:04.483Z,24.11
2022-08-07T23:44:42.060Z,24.15
2022-08-07T23:47:21.238Z,24.14
2022-08-07T23:50:05.380Z,24.16
2022-08-07T23:52:58.161Z,24.17
2022-08-07T23:55:53.074Z,24.18
2022-08-07T23:58:26.772Z,24.18
